Time;durP1;ratioP1;P1;durP2;ratioP2;P2;SDS_P1;SDS_P2;PMS_P1;PMS_P2;Temp;Humidity;BMP_temperature;BMP_pressure;BME280_temperature;BME280_humidity;BME280_pressure;Samples;Min_cycle;Max_cycle;Signal;HPM_P1;HPM_P2
2023/01/06 00:02:01;;;;;;;;;;;;;;;12.45;63.54;97637.34;4234189;28;6446;-74
2023/01/06 00:04:05;;;;;;;;;;;;;;;12.46;63.43;97636.38;4234536;28;5670;-74
2023/01/06 00:06:10;;;;;;;;;;;;;;;12.44;63.32;97633.06;4234590;28;5646;-74
2023/01/06 00:08:13;;;;;;;;;;;;;;;12.47;63.44;97638.03;4234516;28;5651;-73
2023/01/06 00:10:16;;;;;;;;;;;;;;;12.48;63.59;97634.34;4234303;28;5819;-74
2023/01/06 00:12:19;;;;;;;;;;;;;;;12.47;63.56;97635.38;4233917;28;5650;-74
2023/01/06 00:14:23;;;;;;;;;;;;;;;12.48;63.30;97631.72;4234361;28;5064;-74
2023/01/06 00:16:26;;;;;;;;;;;;;;;12.49;63.28;97622.75;4233866;28;7687;-73
2023/01/06 00:18:28;;;;;;;;;;;;;;;12.50;63.62;97640.28;4234290;28;5732;-74
2023/01/06 00:20:33;;;;;;;;;;;;;;;12.49;63.27;97626.22;4234450;28;6356;-74
2023/01/06 00:22:36;;;;;;;;;;;;;;;12.52;63.50;97628.50;4234333;28;5955;-73
2023/01/06 00:24:39;;;;;;;;;;;;;;;12.56;63.48;97634.25;4234407;28;5650;-74
2023/01/06 00:26:41;;;;;;;;;;;;;;;12.58;63.16;97629.59;4234095;28;5650;-74
2023/01/06 00:28:44;;;;;;;;;;;;;;;12.59;63.17;97633.88;4234026;28;5667;-73
2023/01/06 00:30:48;;;;;;;;;;;;;;;12.57;63.18;97635.06;4234048;28;5674;-73
2023/01/06 00:32:51;;;;;;;;;;;;;;;12.59;63.41;97633.88;4236532;28;5649;-73
2023/01/06 00:34:54;;;;;;;;;;;;;;;12.60;63.48;97640.84;4237652;28;5765;-73
2023/01/06 00:36:57;;;;;;;;;;;;;;;12.61;63.33;97642.47;4229021;28;5865;-74
2023/01/06 00:39:00;;;;;;;;;;;;;;;12.64;63.28;97634.13;4237391;28;5662;-74
2023/01/06 00:41:03;;;;;;;;;;;;;;;12.65;63.19;97638.44;4237208;28;5743;-73
2023/01/06 00:43:06;;;;;;;;;;;;;;;12.64;63.36;97641.28;4237229;28;5930;-73
2023/01/06 00:45:09;;;;;;;;;;;;;;;12.59;63.35;97646.34;4237222;28;5732;-73
2023/01/06 00:47:14;;;;;;;;;;;;;;;12.48;63.74;97642.31;4236921;28;5702;-74
2023/01/06 00:49:17;;;;;;;;;;;;;;;12.44;63.73;97646.31;4237352;28;5677;-74
2023/01/06 00:51:19;;;;;;;;;;;;;;;12.43;63.80;97640.19;4237102;28;5750;-73
2023/01/06 00:53:22;;;;;;;;;;;;;;;12.46;63.84;97641.69;4237550;28;5642;-74
2023/01/06 00:55:25;;;;;;;;;;;;;;;12.49;63.93;97638.66;4237116;28;5662;-73
2023/01/06 00:57:28;;;;;;;;;;;;;;;12.50;63.68;97643.78;4237307;28;5658;-74
2023/01/06 00:59:30;;;;;;;;;;;;;;;12.52;63.83;97651.53;4237286;28;5634;-74
2023/01/06 01:01:34;;;;;;;;;;;;;;;12.57;63.80;97650.97;4236762;28;5726;-74
2023/01/06 01:03:39;;;;;;;;;;;;;;;12.58;63.78;97645.50;4237192;28;5748;-74
2023/01/06 01:05:42;;;;;;;;;;;;;;;12.53;63.62;97645.22;4237170;28;5674;-74
2023/01/06 01:07:45;;;;;;;;;;;;;;;12.54;63.89;97652.16;4237163;28;5744;-74
2023/01/06 01:09:48;;;;;;;;;;;;;;;12.56;63.83;97650.16;4237041;28;5650;-73
2023/01/06 01:12:10;;;;;;;;;;;;;;;12.59;63.97;97655.09;4232443;28;5649;-73
2023/01/06 01:14:15;;;;;;;;;;;;;;;12.60;63.90;97654.09;4222918;28;5675;-75
2023/01/06 01:16:17;;;;;;;;;;;;;;;12.63;63.72;97656.38;4232202;28;6430;-73
2023/01/06 01:18:21;;;;;;;;;;;;;;;12.66;63.59;97663.13;4233285;28;7706;-74
2023/01/06 01:20:25;;;;;;;;;;;;;;;12.67;63.49;97660.28;4223101;28;5559;-74
2023/01/06 01:22:29;;;;;;;;;;;;;;;12.66;63.81;97658.66;4235505;28;7891;-73
2023/01/06 01:24:32;;;;;;;;;;;;;;;12.65;63.82;97661.50;4236160;28;5653;-74
2023/01/06 01:26:35;;;;;;;;;;;;;;;12.66;63.42;97653.34;4226785;28;5102;-74
2023/01/06 01:28:38;;;;;;;;;;;;;;;12.67;63.44;97652.34;4233087;27;5747;-74
2023/01/06 01:30:40;;;;;;;;;;;;;;;12.67;63.36;97652.34;4227503;28;5699;-73
2023/01/06 01:32:43;;;;;;;;;;;;;;;12.64;63.64;97658.00;4233841;28;6429;-74
2023/01/06 01:34:46;;;;;;;;;;;;;;;12.63;63.69;97653.72;4230814;28;5758;-74
2023/01/06 01:36:52;;;;;;;;;;;;;;;12.58;63.55;97657.94;4229421;28;5674;-74
2023/01/06 01:38:56;;;;;;;;;;;;;;;12.53;63.56;97647.88;4222307;28;5684;-73
2023/01/06 01:40:58;;;;;;;;;;;;;;;12.55;63.71;97656.47;4219724;28;5089;-73
2023/01/06 01:43:01;;;;;;;;;;;;;;;12.60;63.66;97651.44;4219522;28;7774;-74
2023/01/06 01:45:05;;;;;;;;;;;;;;;12.62;63.72;97657.38;4227421;28;5638;-74
2023/01/06 01:47:09;;;;;;;;;;;;;;;12.61;63.71;97650.44;4221500;28;5663;-73
2023/01/06 01:49:16;;;;;;;;;;;;;;;12.62;63.22;97649.44;4229237;28;5745;-73
2023/01/06 01:51:26;;;;;;;;;;;;;;;12.64;63.43;97657.19;4228186;28;5679;-73
2023/01/06 01:53:32;;;;;;;;;;;;;;;12.63;63.41;97648.41;4219554;28;5655;-74
2023/01/06 01:55:37;;;;;;;;;;;;;;;12.65;63.45;97646.41;4221774;28;5788;-74
2023/01/06 01:57:45;;;;;;;;;;;;;;;12.67;63.29;97649.69;4234269;28;5453;-74
2023/01/06 01:59:48;;;;;;;;;;;;;;;12.68;63.20;97648.66;4225260;28;7298;-74
2023/01/06 02:01:52;;;;;;;;;;;;;;;12.65;63.23;97646.41;4226876;28;5650;-74
2023/01/06 02:03:55;;;;;;;;;;;;;;;12.62;63.54;97638.81;4227674;28;5765;-74
2023/01/06 02:06:03;;;;;;;;;;;;;;;12.64;63.56;97643.94;4219112;28;5703;-74
2023/01/06 02:08:20;;;;;;;;;;;;;;;12.66;63.27;97641.91;4221481;28;5655;-74
2023/01/06 02:10:25;;;;;;;;;;;;;;;12.66;63.26;97645.38;4230277;28;5587;-74
2023/01/06 02:12:28;;;;;;;;;;;;;;;12.67;63.46;97638.25;4230776;28;7328;-74
2023/01/06 02:14:31;;;;;;;;;;;;;;;12.67;63.34;97641.72;4219542;28;5816;-74
2023/01/06 02:16:47;;;;;;;;;;;;;;;12.67;63.67;97641.72;4230998;28;5764;-74
2023/01/06 02:18:58;;;;;;;;;;;;;;;12.69;63.35;97631.78;4234389;28;5639;-74
2023/01/06 02:21:23;;;;;;;;;;;;;;;12.71;63.35;97635.06;4226107;28;5770;-74
2023/01/06 02:23:56;;;;;;;;;;;;;;;12.69;63.44;97634.41;4231266;28;5677;-74
2023/01/06 02:26:15;;;;;;;;;;;;;;;12.67;63.40;97636.41;4213499;28;5980;-74
2023/01/06 02:28:45;;;;;;;;;;;;;;;12.66;63.52;97637.44;4235311;28;5745;-74
2023/01/06 02:31:24;;;;;;;;;;;;;;;12.70;63.60;97646.69;4235646;28;5646;-74
2023/01/06 02:33:31;;;;;;;;;;;;;;;12.68;63.25;97643.38;4222103;28;5733;-74
2023/01/06 02:35:49;;;;;;;;;;;;;;;12.68;63.68;97642.53;4235526;28;5650;-73
2023/01/06 02:38:03;;;;;;;;;;;;;;;12.68;63.40;97638.06;4235573;28;5737;-74
2023/01/06 02:40:21;;;;;;;;;;;;;;;12.69;63.39;97638.91;4236638;27;5740;-74
2023/01/06 02:42:34;;;;;;;;;;;;;;;12.68;63.58;97635.41;4239634;27;5099;-74
2023/01/06 02:44:48;;;;;;;;;;;;;;;12.66;63.37;97628.66;4235348;28;5650;-74
2023/01/06 02:47:06;;;;;;;;;;;;;;;12.64;63.64;97631.50;4235236;28;5639;-73
2023/01/06 02:49:19;;;;;;;;;;;;;;;12.57;63.38;97625.31;4235353;28;5669;-74
2023/01/06 02:51:28;;;;;;;;;;;;;;;12.53;63.68;97618.69;4234936;28;5646;-73
2023/01/06 02:53:39;;;;;;;;;;;;;;;12.56;63.77;97618.31;4235178;28;5645;-74
2023/01/06 02:55:46;;;;;;;;;;;;;;;12.59;63.71;97617.97;4234990;28;5748;-74
2023/01/06 02:57:52;;;;;;;;;;;;;;;12.57;63.66;97612.03;4235215;28;5642;-74
2023/01/06 03:00:03;;;;;;;;;;;;;;;12.58;63.57;97611.03;4235096;28;5817;-73
2023/01/06 03:02:09;;;;;;;;;;;;;;;12.60;63.48;97610.84;4234721;28;5662;-74
2023/01/06 03:04:18;;;;;;;;;;;;;;;12.56;63.71;97612.19;4235019;28;5842;-74
2023/01/06 03:06:26;;;;;;;;;;;;;;;12.56;63.46;97613.00;4235092;28;6355;-74
2023/01/06 03:08:31;;;;;;;;;;;;;;;12.59;63.37;97612.66;4234843;28;5710;-74
2023/01/06 03:10:33;;;;;;;;;;;;;;;12.57;63.64;97609.38;4234827;28;5661;-74
2023/01/06 03:12:41;;;;;;;;;;;;;;;12.56;63.34;97610.38;4234841;28;5638;-73
2023/01/06 03:14:49;;;;;;;;;;;;;;;12.52;63.47;97617.88;4234993;28;6316;-74
2023/01/06 03:16:53;;;;;;;;;;;;;;;12.49;63.52;97607.66;4233338;28;5658;-74
2023/01/06 03:18:56;;;;;;;;;;;;;;;12.47;63.50;97608.84;4234858;27;5637;-73
2023/01/06 03:21:05;;;;;;;;;;;;;;;12.47;63.65;97603.53;4234769;28;5817;-74
2023/01/06 03:23:08;;;;;;;;;;;;;;;12.48;63.51;97611.31;4234659;28;5650;-74
2023/01/06 03:25:12;;;;;;;;;;;;;;;12.49;63.57;97609.47;4234820;28;5766;-74
2023/01/06 03:27:17;;;;;;;;;;;;;;;12.47;63.81;97604.38;4234665;28;5729;-74
2023/01/06 03:29:22;;;;;;;;;;;;;;;12.47;63.56;97604.38;4234810;28;5638;-74
2023/01/06 03:31:34;;;;;;;;;;;;;;;12.50;63.82;97613.78;4234567;28;5642;-74
2023/01/06 03:33:47;;;;;;;;;;;;;;;12.56;63.47;97612.19;4234705;28;5789;-74
2023/01/06 03:36:13;;;;;;;;;;;;;;;12.60;63.61;97608.19;4234606;28;5674;-74
2023/01/06 03:38:27;;;;;;;;;;;;;;;12.57;63.58;97608.53;4234733;28;5880;-74
2023/01/06 03:40:35;;;;;;;;;;;;;;;12.56;63.35;97605.06;4234676;28;5656;-74
2023/01/06 03:45:11;;;;;;;;;;;;;;;12.56;63.21;97607.72;4227111;28;5729;-74
2023/01/06 03:47:21;;;;;;;;;;;;;;;12.52;63.34;97614.41;4234307;28;5825;-74
2023/01/06 03:49:31;;;;;;;;;;;;;;;12.47;63.60;97612.31;4234527;28;5666;-73
2023/01/06 03:51:46;;;;;;;;;;;;;;;12.46;63.86;97612.50;4234042;28;5642;-73
2023/01/06 03:53:55;;;;;;;;;;;;;;;12.48;63.73;97610.50;4234250;28;5658;-74
2023/01/06 03:56:06;;;;;;;;;;;;;;;12.45;63.63;97616.13;4226303;28;5642;-74
2023/01/06 03:58:11;;;;;;;;;;;;;;;12.49;63.40;97617.44;4234380;28;5645;-73
2023/01/06 04:00:17;;;;;;;;;;;;;;;12.48;63.37;97619.28;4234402;28;5662;-74
2023/01/06 04:02:22;;;;;;;;;;;;;;;12.50;63.46;97611.13;4234175;28;5634;-73
2023/01/06 04:04:25;;;;;;;;;;;;;;;12.54;63.49;97620.34;4233525;28;5638;-74
2023/01/06 04:06:28;;;;;;;;;;;;;;;12.53;63.36;97616.88;4233807;28;5733;-74
2023/01/06 04:08:32;;;;;;;;;;;;;;;12.55;63.28;97624.63;4225970;28;5758;-74
2023/01/06 04:10:34;;;;;;;;;;;;;;;12.55;63.53;97616.69;4223050;28;5647;-74
2023/01/06 04:12:39;;;;;;;;;;;;;;;12.52;63.31;97625.00;4229043;28;5646;-74
2023/01/06 04:14:42;;;;;;;;;;;;;;;12.49;63.63;97623.56;4233487;28;5638;-74
2023/01/06 04:16:45;;;;;;;;;;;;;;;12.44;63.53;97623.28;4226271;28;6359;-74
2023/01/06 04:18:48;;;;;;;;;;;;;;;12.42;63.79;97616.53;4233411;28;5646;-74
2023/01/06 04:20:50;;;;;;;;;;;;;;;12.41;63.59;97617.53;4224714;28;5758;-74
2023/01/06 04:22:54;;;;;;;;;;;;;;;12.41;63.89;97625.47;4225306;28;5638;-74
2023/01/06 04:24:58;;;;;;;;;;;;;;;12.37;63.62;97613.63;4223958;28;5687;-74
2023/01/06 04:27:01;;;;;;;;;;;;;;;12.35;64.04;97615.63;4217773;28;5671;-74
2023/01/06 04:29:04;;;;;;;;;;;;;;;12.32;64.07;97615.97;4232737;28;5731;-74
2023/01/06 04:31:08;;;;;;;;;;;;;;;12.33;64.04;97620.28;4229008;28;5789;-73
2023/01/06 04:33:11;;;;;;;;;;;;;;;12.34;63.90;97619.25;4221089;28;5663;-74
2023/01/06 04:35:14;;;;;;;;;;;;;;;12.35;63.96;97618.28;4219480;28;5746;-74
2023/01/06 04:37:17;;;;;;;;;;;;;;;12.35;63.49;97618.28;4233563;28;5641;-74
2023/01/06 04:39:22;;;;;;;;;;;;;;;12.40;63.75;97623.84;4233666;28;5642;-74
2023/01/06 04:41:27;;;;;;;;;;;;;;;12.44;63.53;97622.44;4233198;28;5721;-74
2023/01/06 04:43:29;;;;;;;;;;;;;;;12.49;63.62;97617.44;4230219;28;5841;-74
2023/01/06 04:45:32;;;;;;;;;;;;;;;12.48;63.82;97619.28;4229366;28;5660;-74
2023/01/06 04:47:35;;;;;;;;;;;;;;;12.49;63.54;97618.25;4229115;28;5646;-74
2023/01/06 04:49:38;;;;;;;;;;;;;;;12.52;63.63;97612.56;4225971;28;5836;-74
2023/01/06 04:51:41;;;;;;;;;;;;;;;12.53;63.60;97610.75;4231017;28;5736;-73
2023/01/06 04:53:44;;;;;;;;;;;;;;;12.52;63.45;97615.22;4227607;28;5124;-74
2023/01/06 04:55:46;;;;;;;;;;;;;;;12.53;63.70;97622.19;4232157;28;5797;-74
2023/01/06 04:57:50;;;;;;;;;;;;;;;12.51;63.70;97621.53;4233257;28;5642;-74
2023/01/06 04:59:53;;;;;;;;;;;;;;;12.54;63.86;97626.47;4226309;28;5660;-74
2023/01/06 05:01:56;;;;;;;;;;;;;;;12.56;63.69;97625.47;4225476;28;5717;-74
2023/01/06 05:03:58;;;;;;;;;;;;;;;12.58;63.44;97621.63;4227567;28;5666;-73
2023/01/06 05:06:02;;;;;;;;;;;;;;;12.54;63.68;97623.00;4226577;28;5735;-74
2023/01/06 05:08:05;;;;;;;;;;;;;;;12.57;63.56;97622.66;4234012;28;6681;-74
2023/01/06 05:10:09;;;;;;;;;;;;;;;12.55;63.53;97627.28;4230191;28;5646;-74
2023/01/06 05:12:12;;;;;;;;;;;;;;;12.57;63.86;97624.44;4222097;28;5123;-74
2023/01/06 05:14:16;;;;;;;;;;;;;;;12.57;63.89;97633.25;4217141;28;7722;-74
2023/01/06 05:16:24;;;;;;;;;;;;;;;12.59;63.87;97633.88;4220398;28;5642;-73
2023/01/06 05:18:27;;;;;;;;;;;;;;;12.61;63.58;97637.16;4230959;28;5734;-74
2023/01/06 05:20:30;;;;;;;;;;;;;;;12.61;63.59;97639.81;4230514;28;5080;-74
2023/01/06 05:22:32;;;;;;;;;;;;;;;12.58;63.62;97632.25;4235201;28;7675;-74
2023/01/06 05:24:35;;;;;;;;;;;;;;;12.56;63.73;97628.94;4235107;28;5657;-74
2023/01/06 05:26:38;;;;;;;;;;;;;;;12.54;64.00;97631.78;4236846;28;5654;-74
2023/01/06 05:28:41;;;;;;;;;;;;;;;12.54;63.73;97637.06;4236821;28;5680;-74
2023/01/06 05:30:45;;;;;;;;;;;;;;;12.53;63.74;97642.56;4236608;28;5754;-74
2023/01/06 05:32:48;;;;;;;;;;;;;;;12.54;63.70;97652.16;4236449;28;5691;-74
2023/01/06 05:34:51;;;;;;;;;;;;;;;12.59;64.03;97646.34;4236446;28;5654;-74
2023/01/06 05:36:54;;;;;;;;;;;;;;;12.56;63.75;97646.69;4236468;28;5642;-74
2023/01/06 05:38:57;;;;;;;;;;;;;;;12.54;63.86;97642.38;4219804;28;5727;-74
2023/01/06 05:41:00;;;;;;;;;;;;;;;12.54;63.94;97641.56;4235992;28;6568;-74
2023/01/06 05:43:03;;;;;;;;;;;;;;;12.56;64.20;97650.16;4233163;28;5794;-74
2023/01/06 05:45:07;;;;;;;;;;;;;;;12.57;63.94;97649.16;4226996;28;5793;-74
2023/01/06 05:47:11;;;;;;;;;;;;;;;12.58;64.16;97650.81;4230397;28;5642;-74
2023/01/06 05:49:14;;;;;;;;;;;;;;;12.58;63.94;97650.81;4233022;27;5638;-74
2023/01/06 05:51:17;;;;;;;;;;;;;;;12.59;64.09;97655.09;4230257;28;5650;-73
2023/01/06 05:53:19;;;;;;;;;;;;;;;12.56;63.89;97655.47;4236349;28;5646;-74
2023/01/06 05:55:22;;;;;;;;;;;;;;;12.59;64.00;97664.91;4235154;28;5659;-74
2023/01/06 05:57:25;;;;;;;;;;;;;;;12.59;64.27;97665.72;4235246;28;5645;-74
2023/01/06 05:59:27;;;;;;;;;;;;;;;12.60;64.09;97661.22;4235520;28;5868;-74
2023/01/06 06:01:32;;;;;;;;;;;;;;;12.59;64.09;97659.59;4223605;28;5822;-73
2023/01/06 06:03:36;;;;;;;;;;;;;;;12.56;64.15;97660.75;4233228;28;5661;-74
2023/01/06 06:05:39;;;;;;;;;;;;;;;12.57;64.05;97662.44;4222021;28;5680;-74
2023/01/06 06:07:41;;;;;;;;;;;;;;;12.59;64.41;97667.56;4225634;28;5650;-74
2023/01/06 06:09:44;;;;;;;;;;;;;;;12.61;64.04;97671.66;4228788;28;5675;-74
2023/01/06 06:11:50;;;;;;;;;;;;;;;12.63;64.00;97672.28;4218628;28;5813;-74
2023/01/06 06:13:55;;;;;;;;;;;;;;;12.63;63.99;97677.59;4224633;28;5668;-75
2023/01/06 06:16:08;;;;;;;;;;;;;;;12.62;64.24;97673.31;4227976;28;5649;-75
2023/01/06 06:18:11;;;;;;;;;;;;;;;12.62;64.07;97669.81;4224600;28;5664;-75
2023/01/06 06:20:15;;;;;;;;;;;;;;;12.63;64.13;97677.59;4231537;28;5654;-75
2023/01/06 06:22:18;;;;;;;;;;;;;;;12.64;64.24;97679.25;4230467;28;5638;-75
2023/01/06 06:24:21;;;;;;;;;;;;;;;12.63;64.33;97677.59;4235425;28;5736;-75
2023/01/06 06:26:24;;;;;;;;;;;;;;;12.62;64.38;97675.94;4225059;27;5711;-75
2023/01/06 06:28:26;;;;;;;;;;;;;;;12.64;64.04;97671.28;4230973;28;5726;-74
2023/01/06 06:30:29;;;;;;;;;;;;;;;12.62;64.17;97675.13;4231051;28;5678;-73
2023/01/06 06:32:32;;;;;;;;;;;;;;;12.61;64.27;97673.50;4233309;28;5654;-74
2023/01/06 06:34:35;;;;;;;;;;;;;;;12.64;64.46;97678.41;4234711;28;5670;-74
2023/01/06 06:36:39;;;;;;;;;;;;;;;12.65;64.41;97682.72;4226691;28;5757;-75
2023/01/06 06:38:42;;;;;;;;;;;;;;;12.67;64.23;97680.69;4227164;28;5659;-74
2023/01/06 06:40:44;;;;;;;;;;;;;;;12.66;64.05;97676.41;4233305;28;5731;-75
2023/01/06 06:42:51;;;;;;;;;;;;;;;12.66;64.18;97676.41;4235542;28;5760;-74
2023/01/06 06:44:54;;;;;;;;;;;;;;;12.66;64.08;97681.69;4233508;28;5662;-74
2023/01/06 06:46:58;;;;;;;;;;;;;;;12.66;64.24;97682.53;4228194;28;6040;-77
2023/01/06 06:49:00;;;;;;;;;;;;;;;12.67;64.43;97683.34;4234946;28;7703;-76
2023/01/06 06:51:06;;;;;;;;;;;;;;;12.65;64.29;97680.88;4219233;28;5695;-77
2023/01/06 06:53:10;;;;;;;;;;;;;;;12.65;64.20;97680.88;4227610;28;5709;-77
2023/01/06 06:55:12;;;;;;;;;;;;;;;12.64;64.41;97681.06;4227234;28;5659;-76
2023/01/06 06:57:15;;;;;;;;;;;;;;;12.60;64.27;97691.25;4231182;28;5672;-77
2023/01/06 06:59:18;;;;;;;;;;;;;;;12.53;64.23;97683.19;4221951;28;5645;-76
2023/01/06 07:01:21;;;;;;;;;;;;;;;12.52;64.60;97686.00;4234233;27;5792;-77
2023/01/06 07:03:24;;;;;;;;;;;;;;;12.48;64.39;97679.44;4229893;28;5646;-76
2023/01/06 07:05:28;;;;;;;;;;;;;;;12.44;64.67;97678.97;4234860;28;5661;-75
2023/01/06 07:07:31;;;;;;;;;;;;;;;12.42;64.63;97674.84;4232404;28;5646;-77
2023/01/06 07:09:35;;;;;;;;;;;;;;;12.38;64.91;97668.28;4233101;28;5638;-77
2023/01/06 07:11:37;;;;;;;;;;;;;;;12.35;64.91;97673.97;4224943;28;5833;-76
2023/01/06 07:13:40;;;;;;;;;;;;;;;12.28;64.82;97671.19;4232519;28;5659;-75
2023/01/06 07:15:43;;;;;;;;;;;;;;;12.26;64.83;97675.06;4229099;28;5864;-76
2023/01/06 07:17:46;;;;;;;;;;;;;;;12.29;65.03;97679.97;4229532;28;7765;-77
2023/01/06 07:19:49;;;;;;;;;;;;;;;12.34;64.75;97677.59;4232564;28;5645;-76
2023/01/06 07:21:52;;;;;;;;;;;;;;;12.39;64.83;97680.53;4233788;28;5650;-76
2023/01/06 07:23:54;;;;;;;;;;;;;;;12.43;64.61;97676.50;4234978;28;5647;-76
2023/01/06 07:26:01;;;;;;;;;;;;;;;12.46;64.48;97676.97;4218561;28;5679;-75
2023/01/06 07:28:05;;;;;;;;;;;;;;;12.50;64.52;97678.25;4227271;28;5646;-77
2023/01/06 07:30:09;;;;;;;;;;;;;;;12.49;64.13;97681.09;4234851;28;5677;-76
2023/01/06 07:32:12;;;;;;;;;;;;;;;12.48;64.34;97674.13;4234564;28;5809;-75
2023/01/06 07:34:15;;;;;;;;;;;;;;;12.48;64.19;97674.97;4234963;28;5658;-76
2023/01/06 07:36:17;;;;;;;;;;;;;;;12.48;64.17;97672.31;4223943;28;5733;-75
2023/01/06 07:38:20;;;;;;;;;;;;;;;12.46;64.41;97670.84;4217907;28;5646;-75
2023/01/06 07:40:23;;;;;;;;;;;;;;;12.43;64.42;97674.66;4222426;28;6555;-74
2023/01/06 07:42:27;;;;;;;;;;;;;;;12.44;64.46;97683.44;4227058;28;6502;-76
2023/01/06 07:44:30;;;;;;;;;;;;;;;12.43;64.28;97687.94;4233627;28;5780;-76
2023/01/06 07:46:33;;;;;;;;;;;;;;;12.45;64.28;97683.25;4234600;28;6269;-74
2023/01/06 07:48:36;;;;;;;;;;;;;;;12.45;64.52;97685.09;4234423;28;7679;-74
2023/01/06 07:50:38;;;;;;;;;;;;;;;12.48;64.37;97688.22;4234779;28;5646;-76
2023/01/06 07:52:41;;;;;;;;;;;;;;;12.51;64.22;97689.69;4234497;28;5638;-76
2023/01/06 07:54:44;;;;;;;;;;;;;;;12.52;64.11;97691.31;4234827;28;5739;-76
2023/01/06 07:56:47;;;;;;;;;;;;;;;12.54;64.44;97697.25;4234888;28;5654;-76
2023/01/06 07:58:53;;;;;;;;;;;;;;;12.55;64.10;97693.59;4234720;28;5657;-74
2023/01/06 08:00:56;;;;;;;;;;;;;;;12.58;63.99;97698.56;4234569;28;5744;-76
2023/01/06 08:02:58;;;;;;;;;;;;;;;12.57;64.31;97698.72;4234185;28;5658;-76
2023/01/06 08:05:01;;;;;;;;;;;;;;;12.53;64.08;97708.88;4234452;28;5650;-75
2023/01/06 08:07:04;;;;;;;;;;;;;;;12.50;64.02;97696.81;4234419;27;5662;-75
2023/01/06 08:09:07;;;;;;;;;;;;;;;12.48;64.03;97698.00;4234469;28;5634;-76
2023/01/06 08:11:12;;;;;;;;;;;;;;;12.43;64.17;97709.16;4234486;28;5721;-77
2023/01/06 08:13:15;;;;;;;;;;;;;;;12.41;64.50;97700.56;4234327;28;5705;-74
2023/01/06 08:15:21;;;;;;;;;;;;;;;12.45;64.47;97703.66;4234437;28;5646;-76
2023/01/06 08:17:24;;;;;;;;;;;;;;;12.44;64.31;97704.66;4234147;28;5638;-76
2023/01/06 08:19:27;;;;;;;;;;;;;;;12.42;64.10;97701.38;4234452;28;5852;-75
2023/01/06 08:21:30;;;;;;;;;;;;;;;12.36;64.11;97699.47;4234461;28;5653;-75
2023/01/06 08:23:33;;;;;;;;;;;;;;;12.33;64.15;97707.75;4234583;28;5048;-76
2023/01/06 08:25:36;;;;;;;;;;;;;;;12.27;64.58;97700.56;4234498;28;5076;-76
2023/01/06 08:27:39;;;;;;;;;;;;;;;12.29;64.27;97706.50;4234562;28;5798;-75
2023/01/06 08:29:41;;;;;;;;;;;;;;;12.28;64.43;97699.53;4234376;28;5654;-75
2023/01/06 08:31:45;;;;;;;;;;;;;;;12.28;64.26;97696.91;4234162;28;5643;-75
2023/01/06 08:33:50;;;;;;;;;;;;;;;12.30;64.12;97694.88;4234312;28;5650;-76
2023/01/06 08:35:58;;;;;;;;;;;;;;;12.28;64.16;97694.25;4234536;28;5748;-77
2023/01/06 08:38:01;;;;;;;;;;;;;;;12.24;64.46;97699.91;4226639;28;5650;-76
2023/01/06 08:40:04;;;;;;;;;;;;;;;12.26;64.28;97701.56;4234221;28;5080;-76
2023/01/06 08:42:07;;;;;;;;;;;;;;;12.27;64.41;97703.22;4234025;28;7695;-74
2023/01/06 08:44:10;;;;;;;;;;;;;;;12.28;64.38;97702.19;4234323;28;5657;-74
2023/01/06 08:46:15;;;;;;;;;;;;;;;12.19;63.96;97702.28;4234226;28;5971;-73
2023/01/06 08:48:19;;;;;;;;;;;;;;;12.11;64.19;97702.34;4234036;28;5666;-73
2023/01/06 08:50:22;;;;;;;;;;;;;;;12.05;64.69;97710.22;4234015;28;5653;-73
2023/01/06 08:52:26;;;;;;;;;;;;;;;12.08;64.75;97721.25;4233913;28;5701;-73
2023/01/06 08:54:29;;;;;;;;;;;;;;;12.10;64.70;97716.59;4237150;28;5642;-73
2023/01/06 08:56:32;;;;;;;;;;;;;;;12.12;64.55;97717.28;4237563;28;5133;-73
2023/01/06 08:58:35;;;;;;;;;;;;;;;12.17;64.40;97704.28;4237325;28;5654;-73
2023/01/06 09:00:40;;;;;;;;;;;;;;;12.16;64.02;97713.25;4237296;28;5643;-73
2023/01/06 09:02:43;;;;;;;;;;;;;;;12.09;64.44;97714.13;4236968;28;5654;-73
2023/01/06 09:04:48;;;;;;;;;;;;;;;12.01;64.66;97717.69;4237183;28;5749;-73
2023/01/06 09:06:51;;;;;;;;;;;;;;;12.00;64.57;97723.97;4237077;28;5646;-74
2023/01/06 09:08:53;;;;;;;;;;;;;;;12.07;64.63;97724.91;4236818;28;5658;-73
2023/01/06 09:10:56;;;;;;;;;;;;;;;12.13;64.54;97724.22;4236530;28;5650;-73
2023/01/06 09:12:59;;;;;;;;;;;;;;;12.17;64.34;97729.97;4220335;28;5069;-73
2023/01/06 09:15:03;;;;;;;;;;;;;;;12.21;64.04;97726.78;4220780;28;7388;-73
2023/01/06 09:17:08;;;;;;;;;;;;;;;12.27;64.04;97729.72;4236756;28;5642;-73
2023/01/06 09:19:11;;;;;;;;;;;;;;;12.30;64.21;97724.03;4236926;28;6506;-73
2023/01/06 09:21:16;;;;;;;;;;;;;;;12.34;64.19;97731.44;4237021;28;5646;-74
2023/01/06 09:23:20;;;;;;;;;;;;;;;12.36;64.13;97724.16;4237168;28;5765;-73
2023/01/06 09:25:23;;;;;;;;;;;;;;;12.40;63.94;97729.91;4237073;28;5932;-74
2023/01/06 09:27:26;;;;;;;;;;;;;;;12.41;64.12;97727.06;4236892;28;5664;-73
2023/01/06 09:29:28;;;;;;;;;;;;;;;12.45;63.79;97724.88;4236711;28;5646;-73
2023/01/06 09:31:31;;;;;;;;;;;;;;;12.48;63.87;97727.19;4236558;28;5732;-73
2023/01/06 09:33:34;;;;;;;;;;;;;;;12.48;63.94;97722.69;4236568;28;5654;-73
2023/01/06 09:35:37;;;;;;;;;;;;;;;12.49;63.69;97721.69;4236947;28;5642;-73
2023/01/06 09:37:41;;;;;;;;;;;;;;;12.51;63.72;97732.13;4236499;28;5642;-74
2023/01/06 09:39:44;;;;;;;;;;;;;;;12.53;63.63;97740.69;4236436;28;5677;-73
2023/01/06 09:42:04;;;;;;;;;;;;;;;12.54;63.67;97742.34;4236616;28;5658;-73
2023/01/06 09:44:13;;;;;;;;;;;;;;;12.52;63.74;97739.06;4219767;28;5759;-73
2023/01/06 09:46:19;;;;;;;;;;;;;;;12.53;63.79;97743.34;4219759;28;5826;-73
2023/01/06 09:48:27;;;;;;;;;;;;;;;12.52;63.66;97741.72;4222993;28;5650;-73
2023/01/06 09:50:35;;;;;;;;;;;;;;;12.52;63.97;97744.38;4236477;28;5734;-74
2023/01/06 09:52:45;;;;;;;;;;;;;;;12.53;63.83;97741.53;4236102;28;5646;-73
2023/01/06 09:54:54;;;;;;;;;;;;;;;12.56;63.88;97744.81;4236182;28;5634;-73
2023/01/06 09:57:04;;;;;;;;;;;;;;;12.59;63.56;97739.16;4226213;28;5877;-73
2023/01/06 09:59:14;;;;;;;;;;;;;;;12.60;63.74;97733.69;4236311;28;5806;-73
2023/01/06 10:01:25;;;;;;;;;;;;;;;12.61;63.79;97739.81;4236538;28;5757;-74
2023/01/06 10:03:28;;;;;;;;;;;;;;;12.56;63.56;97740.34;4236144;28;5647;-73
2023/01/06 10:05:38;;;;;;;;;;;;;;;12.52;63.79;97739.88;4235202;28;5902;-73
2023/01/06 10:07:50;;;;;;;;;;;;;;;12.53;63.52;97740.69;4236042;28;6765;-73
2023/01/06 10:10:05;;;;;;;;;;;;;;;12.54;63.75;97737.88;4235851;28;5804;-73
2023/01/06 10:12:19;;;;;;;;;;;;;;;12.59;63.69;97737.34;4219171;28;5674;-73
2023/01/06 10:14:37;;;;;;;;;;;;;;;12.64;63.56;97736.78;4219247;28;5672;-74
2023/01/06 10:16:53;;;;;;;;;;;;;;;12.60;63.56;97733.69;4219350;28;5754;-74
2023/01/06 10:19:06;;;;;;;;;;;;;;;12.61;63.71;97737.16;4227624;28;5116;-73
2023/01/06 10:21:18;;;;;;;;;;;;;;;12.59;63.40;97729.38;4221107;28;5666;-74
2023/01/06 10:23:45;;;;;;;;;;;;;;;12.58;63.51;97726.91;4235961;28;5646;-73
2023/01/06 10:25:53;;;;;;;;;;;;;;;12.61;63.62;97723.88;4235780;28;5638;-73
2023/01/06 10:28:08;;;;;;;;;;;;;;;12.65;63.46;97725.97;4236093;28;5080;-73
2023/01/06 10:30:18;;;;;;;;;;;;;;;12.69;63.49;97719.31;4236057;28;5638;-73
2023/01/06 10:32:24;;;;;;;;;;;;;;;12.72;63.22;97718.13;4235529;28;5654;-73
2023/01/06 10:34:28;;;;;;;;;;;;;;;12.74;63.10;97718.75;4235770;28;5754;-74
2023/01/06 10:36:38;;;;;;;;;;;;;;;12.76;63.37;97717.56;4235947;28;5662;-74
2023/01/06 10:38:45;;;;;;;;;;;;;;;12.76;63.13;97717.56;4235877;28;5662;-73
2023/01/06 10:40:48;;;;;;;;;;;;;;;12.74;63.21;97710.78;4235332;28;5646;-73
2023/01/06 10:42:56;;;;;;;;;;;;;;;12.72;63.36;97716.28;4235766;28;5730;-73
2023/01/06 10:44:58;;;;;;;;;;;;;;;12.72;63.16;97716.28;4227605;28;5649;-73
2023/01/06 10:47:01;;;;;;;;;;;;;;;12.72;63.24;97708.34;4235140;28;5654;-73
2023/01/06 10:49:08;;;;;;;;;;;;;;;12.73;63.26;97712.63;4235536;28;5706;-73
2023/01/06 10:51:33;;;;;;;;;;;;;;;12.75;63.24;97713.25;4235507;28;5642;-73
2023/01/06 10:53:36;;;;;;;;;;;;;;;12.79;63.15;97708.41;4235406;28;5650;-74
2023/01/06 10:55:46;;;;;;;;;;;;;;;12.79;62.84;97703.91;4235284;28;5134;-74
2023/01/06 10:57:51;;;;;;;;;;;;;;;12.78;63.12;97704.94;4235534;28;5642;-74
2023/01/06 11:00:15;;;;;;;;;;;;;;;12.73;62.99;97707.31;4235446;28;5749;-74
2023/01/06 11:02:22;;;;;;;;;;;;;;;12.71;63.10;97700.56;4221215;28;5781;-73
2023/01/06 11:04:27;;;;;;;;;;;;;;;12.67;62.92;97702.72;4235230;28;5642;-73
2023/01/06 11:06:31;;;;;;;;;;;;;;;12.67;62.95;97700.09;4235355;28;5678;-74